createdAt,value
2022-12-01T00:01:13.227Z,101376.69
2022-12-01T00:03:40.160Z,101381.47
2022-12-01T00:06:10.720Z,101383.66
2022-12-01T00:08:37.680Z,101375.59
2022-12-01T00:11:10.567Z,101383.78
2022-12-01T00:13:37.735Z,101371.97
2022-12-01T00:16:15.582Z,101379.19
2022-12-01T00:18:42.775Z,101375.03
2022-12-01T00:21:17.571Z,101373.78
2022-12-01T00:23:48.918Z,101368.97
2022-12-01T00:26:16.895Z,101364.00
2022-12-01T00:28:43.730Z,101354.66
2022-12-01T00:31:12.169Z,101357.66
2022-12-01T00:33:39.612Z,101356.69
2022-12-01T00:36:07.521Z,101358.00
2022-12-01T00:38:34.891Z,101350.81
2022-12-01T00:41:03.672Z,101351.31
2022-12-01T00:43:30.320Z,101347.03
2022-12-01T00:45:57.956Z,101348.91
2022-12-01T00:48:24.918Z,101350.06
2022-12-01T00:50:53.431Z,101349.91
2022-12-01T00:53:20.259Z,101342.75
2022-12-01T00:55:46.971Z,101343.94
2022-12-01T00:58:13.735Z,101351.00
2022-12-01T01:00:40.541Z,101343.88
2022-12-01T01:03:07.591Z,101345.63
2022-12-01T01:05:39.167Z,101353.00
2022-12-01T01:08:10.143Z,101349.59
2022-12-01T01:10:47.531Z,101354.16
2022-12-01T01:13:15.284Z,101353.78
2022-12-01T01:15:42.039Z,101349.69
2022-12-01T01:18:10.743Z,101352.31
2022-12-01T01:20:37.466Z,101350.56
2022-12-01T01:23:04.106Z,101354.22
2022-12-01T01:25:32.384Z,101343.47
2022-12-01T01:27:59.075Z,101350.56
2022-12-01T01:30:25.780Z,101345.75
2022-12-01T01:32:52.466Z,101346.09
2022-12-01T01:35:19.071Z,101345.88
2022-12-01T01:37:45.761Z,101345.56
2022-12-01T01:40:12.560Z,101349.09
2022-12-01T01:42:39.238Z,101348.13
2022-12-01T01:45:21.478Z,101357.94
2022-12-01T01:47:49.472Z,101351.53
2022-12-01T01:50:19.123Z,101348.34
2022-12-01T01:52:51.639Z,101343.53
2022-12-01T01:55:19.433Z,101347.84
2022-12-01T01:57:46.626Z,101347.06
2022-12-01T02:00:17.139Z,101343.53
2022-12-01T02:02:45.939Z,101343.88
2022-12-01T02:05:29.430Z,101344.72
2022-12-01T02:07:57.846Z,101340.75
2022-12-01T02:10:56.051Z,101343.94
2022-12-01T02:14:02.747Z,101341.28
2022-12-01T02:16:36.279Z,101339.47
2022-12-01T02:19:33.506Z,101341.19
2022-12-01T02:22:37.599Z,101336.09
2022-12-01T02:25:38.448Z,101336.94
2022-12-01T02:28:26.860Z,101342.88
2022-12-01T02:30:59.310Z,101339.69
2022-12-01T02:33:35.667Z,101342.34
2022-12-01T02:36:18.352Z,101334.09
2022-12-01T02:39:12.170Z,101336.16
2022-12-01T02:41:45.335Z,101333.44
2022-12-01T02:44:18.104Z,101327.97
2022-12-01T02:46:50.891Z,101338.38
2022-12-01T02:49:23.948Z,101335.34
2022-12-01T02:51:52.535Z,101327.34
2022-12-01T02:54:20.411Z,101326.72
2022-12-01T02:56:47.019Z,101324.94
2022-12-01T02:59:15.151Z,101325.53
2022-12-01T03:02:18.250Z,101321.91
2022-12-01T03:05:01.451Z,101329.38
2022-12-01T03:07:40.566Z,101329.53
2022-12-01T03:10:35.005Z,101332.81
2022-12-01T03:13:07.507Z,101332.44
2022-12-01T03:16:06.909Z,101329.78
2022-12-01T03:18:45.946Z,101331.63
2022-12-01T03:21:21.301Z,101333.03
2022-12-01T03:23:52.123Z,101327.72
2022-12-01T03:26:22.527Z,101332.25
2022-12-01T03:28:54.631Z,101324.63
2022-12-01T03:31:25.793Z,101328.69
2022-12-01T03:33:58.332Z,101327.03
2022-12-01T03:36:30.981Z,101320.50
2022-12-01T03:39:04.664Z,101320.28
2022-12-01T03:41:56.392Z,101319.75
2022-12-01T03:44:34.169Z,101310.09
2022-12-01T03:47:08.647Z,101308.81
2022-12-01T03:49:36.338Z,101309.94
2022-12-01T03:52:21.407Z,101307.66
2022-12-01T03:55:12.503Z,101305.22
2022-12-01T03:58:05.294Z,101305.09
2022-12-01T04:00:32.641Z,101307.97
2022-12-01T04:03:03.867Z,101307.44
2022-12-01T04:05:35.200Z,101307.91
2022-12-01T04:08:02.147Z,101302.03
2022-12-01T04:10:28.884Z,101303.81
2022-12-01T04:12:59.404Z,101303.19
2022-12-01T04:15:27.228Z,101298.88
2022-12-01T04:17:54.298Z,101302.19
2022-12-01T04:20:21.675Z,101307.28
2022-12-01T04:22:49.289Z,101300.53
2022-12-01T04:25:15.941Z,101304.91
2022-12-01T04:27:42.557Z,101299.44
2022-12-01T04:30:09.708Z,101302.50
2022-12-01T04:32:43.535Z,101305.78
2022-12-01T04:35:12.266Z,101301.22
2022-12-01T04:37:39.936Z,101297.97
2022-12-01T04:40:07.289Z,101297.78
2022-12-01T04:42:34.204Z,101295.63
2022-12-01T04:45:00.847Z,101305.94
2022-12-01T04:47:27.761Z,101301.97
2022-12-01T04:49:54.602Z,101301.16
2022-12-01T04:52:21.250Z,101297.03
2022-12-01T04:54:47.927Z,101305.88
2022-12-01T04:57:14.596Z,101297.63
2022-12-01T04:59:41.491Z,101300.88
2022-12-01T05:02:08.245Z,101308.84
2022-12-01T05:04:38.535Z,101292.44
2022-12-01T05:07:05.483Z,101304.06
2022-12-01T05:09:32.135Z,101296.09
2022-12-01T05:11:58.803Z,101300.06
2022-12-01T05:14:25.384Z,101310.00
2022-12-01T05:16:52.042Z,101301.81
2022-12-01T05:19:37.409Z,101301.38
2022-12-01T05:22:04.087Z,101295.09
2022-12-01T05:24:30.679Z,101298.28
2022-12-01T05:26:57.302Z,101300.16
2022-12-01T05:29:24.027Z,101301.47
2022-12-01T05:31:50.690Z,101299.78
2022-12-01T05:34:17.411Z,101298.16
2022-12-01T05:36:44.050Z,101301.19
2022-12-01T05:39:10.701Z,101299.34
2022-12-01T05:41:37.361Z,101300.03
2022-12-01T05:44:04.030Z,101301.19
2022-12-01T05:46:30.732Z,101307.66
2022-12-01T05:48:57.294Z,101305.97
2022-12-01T05:51:24.066Z,101308.94
2022-12-01T05:53:50.736Z,101315.28
2022-12-01T05:56:17.375Z,101311.94
2022-12-01T05:58:44.068Z,101314.94
2022-12-01T06:01:10.848Z,101322.91
2022-12-01T06:03:37.491Z,101319.72
2022-12-01T06:06:04.210Z,101329.00
2022-12-01T06:08:30.899Z,101330.63
2022-12-01T06:10:57.579Z,101327.44
2022-12-01T06:13:24.327Z,101332.59
2022-12-01T06:16:02.599Z,101335.31
2022-12-01T06:18:37.853Z,101335.41
2022-12-01T06:21:06.223Z,101342.78
2022-12-01T06:23:32.955Z,101335.41
2022-12-01T06:25:59.580Z,101343.00
2022-12-01T06:28:26.204Z,101340.06
2022-12-01T06:30:56.565Z,101348.31
2022-12-01T06:33:26.427Z,101361.03
2022-12-01T06:36:00.770Z,101362.44
2022-12-01T06:38:30.976Z,101361.22
2022-12-01T06:40:57.675Z,101366.81
2022-12-01T06:43:24.279Z,101366.44
2022-12-01T06:45:52.445Z,101363.16
2022-12-01T06:48:21.872Z,101364.97
2022-12-01T06:50:48.526Z,101358.16
2022-12-01T06:53:15.191Z,101368.19
2022-12-01T06:55:41.780Z,101370.19
2022-12-01T06:58:08.460Z,101379.44
2022-12-01T07:00:35.514Z,101370.22
2022-12-01T07:03:02.110Z,101373.44
2022-12-01T07:05:28.672Z,101377.78
2022-12-01T07:07:59.542Z,101376.53
2022-12-01T07:10:27.779Z,101376.69
2022-12-01T07:12:57.203Z,101381.34
2022-12-01T07:15:24.476Z,101381.94
2022-12-01T07:17:51.147Z,101385.44
2022-12-01T07:20:18.046Z,101391.03
2022-12-01T07:22:44.640Z,101393.50
2022-12-01T07:25:11.331Z,101386.09
2022-12-01T07:27:37.921Z,101399.34
2022-12-01T07:30:05.216Z,101398.88
2022-12-01T07:32:31.882Z,101395.25
2022-12-01T07:34:58.561Z,101394.94
2022-12-01T07:37:25.172Z,101397.97
2022-12-01T07:39:51.952Z,101395.63
2022-12-01T07:42:18.623Z,101410.75
2022-12-01T07:44:45.378Z,101399.72
2022-12-01T07:47:12.031Z,101407.75
2022-12-01T07:49:38.659Z,101402.78
2022-12-01T07:52:05.254Z,101406.53
2022-12-01T07:54:31.917Z,101410.00
2022-12-01T07:56:58.530Z,101407.88
2022-12-01T07:59:25.239Z,101414.53
2022-12-01T08:01:52.703Z,101416.56
2022-12-01T08:04:19.334Z,101407.25
2022-12-01T08:06:45.969Z,101414.28
2022-12-01T08:09:12.646Z,101414.78
2022-12-01T08:11:39.274Z,101410.50
2022-12-01T08:14:05.994Z,101423.66
2022-12-01T08:16:32.750Z,101416.34
2022-12-01T08:18:59.744Z,101426.63
2022-12-01T08:21:26.363Z,101425.28
2022-12-01T08:23:57.588Z,101432.66
2022-12-01T08:26:25.482Z,101435.63
2022-12-01T08:28:52.235Z,101435.63
2022-12-01T08:31:25.902Z,101439.47
2022-12-01T08:33:52.967Z,101439.78
2022-12-01T08:36:20.875Z,101437.31
2022-12-01T08:38:49.849Z,101432.19
2022-12-01T08:41:16.823Z,101427.88
2022-12-01T08:44:01.093Z,101434.19
2022-12-01T08:46:31.307Z,101431.84
2022-12-01T08:48:58.376Z,101432.50
2022-12-01T08:51:26.250Z,101440.13
2022-12-01T08:53:54.386Z,101444.59
2022-12-01T08:56:30.296Z,101445.88
2022-12-01T08:58:58.041Z,101451.09
2022-12-01T09:01:25.905Z,101452.50
2022-12-01T09:04:11.199Z,101454.41
2022-12-01T09:06:40.751Z,101456.78
2022-12-01T09:09:09.450Z,101454.09
2022-12-01T09:11:36.319Z,101453.97
2022-12-01T09:14:02.964Z,101451.81
2022-12-01T09:16:29.734Z,101446.16
2022-12-01T09:18:56.627Z,101445.34
2022-12-01T09:21:26.566Z,101452.34
2022-12-01T09:23:54.175Z,101459.03
2022-12-01T09:26:21.230Z,101463.66
2022-12-01T09:28:56.249Z,101455.88
2022-12-01T09:31:23.696Z,101461.19
2022-12-01T09:33:58.324Z,101460.88
2022-12-01T09:36:25.880Z,101463.06
2022-12-01T09:38:52.670Z,101464.03
2022-12-01T09:41:24.335Z,101470.38
2022-12-01T09:44:14.413Z,101478.88
2022-12-01T09:46:54.000Z,101472.69
2022-12-01T09:49:28.577Z,101478.00
2022-12-01T09:51:55.852Z,101474.50
2022-12-01T09:54:22.537Z,101477.84
2022-12-01T09:56:55.455Z,101475.69
2022-12-01T09:59:30.884Z,101480.69
2022-12-01T10:02:02.763Z,101473.84
2022-12-01T10:04:44.518Z,101469.38
2022-12-01T10:07:43.268Z,101471.72
2022-12-01T10:10:47.039Z,101468.69
2022-12-01T10:13:25.500Z,101463.19
2022-12-01T10:16:03.813Z,101455.38
2022-12-01T10:18:33.365Z,101446.56
2022-12-01T10:21:02.668Z,101450.56
2022-12-01T10:23:49.872Z,101445.06
2022-12-01T10:26:29.862Z,101444.25
2022-12-01T10:29:25.338Z,101450.72
2022-12-01T10:31:58.320Z,101439.56
2022-12-01T10:34:29.574Z,101437.03
2022-12-01T10:36:57.941Z,101434.53
2022-12-01T10:39:43.971Z,101434.69
2022-12-01T10:42:35.528Z,101423.66
2022-12-01T10:45:10.136Z,101429.84
2022-12-01T10:47:36.779Z,101431.38
2022-12-01T10:50:04.190Z,101417.84
2022-12-01T10:52:33.201Z,101423.72
2022-12-01T10:55:00.951Z,101410.38
2022-12-01T10:57:30.585Z,101414.03
2022-12-01T11:00:01.467Z,101410.34
2022-12-01T11:02:31.037Z,101408.63
2022-12-01T11:05:01.569Z,101407.38
2022-12-01T11:07:47.242Z,101401.06
2022-12-01T11:10:27.809Z,101397.59
2022-12-01T11:13:13.277Z,101392.13
2022-12-01T11:15:49.587Z,101384.72
2022-12-01T11:18:33.146Z,101386.16
2022-12-01T11:21:16.768Z,101374.75
2022-12-01T11:23:51.098Z,101379.44
2022-12-01T11:26:26.492Z,101378.13
2022-12-01T11:28:56.853Z,101372.25
2022-12-01T11:31:45.075Z,101372.69
2022-12-01T11:34:34.566Z,101372.56
2022-12-01T11:37:04.792Z,101373.03
2022-12-01T11:39:40.445Z,101374.34
2022-12-01T11:42:21.426Z,101368.53
2022-12-01T11:44:54.480Z,101365.88
2022-12-01T11:47:24.791Z,101359.56
2022-12-01T11:49:56.702Z,101356.44
2022-12-01T11:52:27.288Z,101355.75
2022-12-01T11:57:53.053Z,101347.06
2022-12-01T12:00:23.144Z,101349.59
2022-12-01T12:03:11.544Z,101344.16
2022-12-01T12:05:47.057Z,101337.03
2022-12-01T12:08:22.728Z,101343.09
2022-12-01T12:11:04.377Z,101334.66
2022-12-01T12:13:33.721Z,101331.38
2022-12-01T12:16:40.308Z,101328.56
2022-12-01T12:19:16.010Z,101331.47
2022-12-01T12:21:57.351Z,101330.47
2022-12-01T12:24:56.449Z,101325.69
2022-12-01T12:28:02.385Z,101321.75
2022-12-01T12:30:31.513Z,101317.84
2022-12-01T12:33:42.955Z,101315.41
2022-12-01T12:36:29.144Z,101314.41
2022-12-01T12:39:10.908Z,101307.63
2022-12-01T12:41:54.364Z,101307.25
2022-12-01T12:44:36.838Z,101305.66
2022-12-01T12:47:31.610Z,101302.53
2022-12-01T12:50:42.534Z,101303.81
2022-12-01T12:53:18.668Z,101301.25
2022-12-01T12:55:59.842Z,101295.63
2022-12-01T12:58:34.571Z,101297.97
2022-12-01T13:01:07.822Z,101292.84
2022-12-01T13:03:42.404Z,101293.38
2022-12-01T13:06:20.401Z,101289.22
2022-12-01T13:09:03.930Z,101298.59
2022-12-01T13:11:42.006Z,101288.03
2022-12-01T13:14:34.751Z,101277.69
2022-12-01T13:17:23.726Z,101291.44
2022-12-01T13:19:50.610Z,101286.25
2022-12-01T13:22:21.721Z,101283.38
2022-12-01T13:24:48.395Z,101278.28
2022-12-01T13:27:20.986Z,101277.91
2022-12-01T13:29:51.135Z,101280.44
2022-12-01T13:32:47.172Z,101265.19
2022-12-01T13:35:29.130Z,101277.50
2022-12-01T13:38:14.312Z,101269.09
2022-12-01T13:40:41.126Z,101262.31
2022-12-01T13:43:25.506Z,101262.03
2022-12-01T13:45:52.219Z,101264.69
2022-12-01T13:48:50.120Z,101259.53
2022-12-01T13:51:16.843Z,101251.78
2022-12-01T13:54:01.421Z,101256.88
2022-12-01T13:56:39.287Z,101255.28
2022-12-01T13:59:40.247Z,101252.22
2022-12-01T14:02:17.189Z,101258.53
2022-12-01T14:04:44.137Z,101258.13
2022-12-01T14:07:36.400Z,101259.44
2022-12-01T14:10:08.351Z,101256.38
2022-12-01T14:12:37.845Z,101256.09
2022-12-01T14:15:52.477Z,101255.94
2022-12-01T14:18:24.877Z,101254.47
2022-12-01T14:20:51.822Z,101251.78
2022-12-01T14:23:33.210Z,101247.81
2022-12-01T14:26:21.062Z,101250.53
2022-12-01T14:28:59.783Z,101238.13
2022-12-01T14:31:32.458Z,101252.81
2022-12-01T14:34:03.175Z,101254.19
2022-12-01T14:36:35.910Z,101248.19
2022-12-01T14:39:12.272Z,101252.81
2022-12-01T14:41:51.118Z,101248.28
2022-12-01T14:44:17.776Z,101246.81
2022-12-01T14:46:59.631Z,101255.78
2022-12-01T14:49:39.537Z,101251.16
2022-12-01T14:52:15.344Z,101249.13
2022-12-01T14:54:47.748Z,101251.53
2022-12-01T14:57:18.596Z,101245.38
2022-12-01T14:59:45.300Z,101245.47
2022-12-01T15:02:12.609Z,101249.09
2022-12-01T15:05:09.764Z,101245.22
2022-12-01T15:07:42.438Z,101251.38
2022-12-01T15:10:20.030Z,101250.09
2022-12-01T15:12:48.080Z,101251.25
2022-12-01T15:15:26.845Z,101258.63
2022-12-01T15:17:55.732Z,101264.25
2022-12-01T15:20:28.405Z,101268.41
2022-12-01T15:22:55.586Z,101252.44
2022-12-01T15:25:23.423Z,101253.94
2022-12-01T15:28:03.711Z,101251.25
2022-12-01T15:30:31.435Z,101249.50
2022-12-01T15:32:59.073Z,101256.31
2022-12-01T15:35:26.235Z,101251.59
2022-12-01T15:37:53.694Z,101252.66
2022-12-01T15:43:27.080Z,101257.53
2022-12-01T15:45:59.228Z,101261.13
2022-12-01T15:48:34.910Z,101260.59
2022-12-01T15:51:10.630Z,101268.00
2022-12-01T15:53:42.748Z,101263.19
2022-12-01T15:56:11.603Z,101270.38
2022-12-01T15:58:47.712Z,101267.53
2022-12-01T16:01:20.202Z,101269.81
2022-12-01T16:03:46.787Z,101274.06
2022-12-01T16:06:13.747Z,101267.16
2022-12-01T16:08:40.890Z,101262.38
2022-12-01T16:11:19.155Z,101269.81
2022-12-01T16:13:55.531Z,101271.69
2022-12-01T16:16:30.420Z,101273.53
2022-12-01T16:19:09.911Z,101272.06
2022-12-01T16:22:04.696Z,101276.00
2022-12-01T16:24:42.531Z,101277.28
2022-12-01T16:27:24.151Z,101274.53
2022-12-01T16:29:50.750Z,101280.81
2022-12-01T16:32:31.289Z,101284.19
2022-12-01T16:34:58.391Z,101286.53
2022-12-01T16:37:26.842Z,101286.91
2022-12-01T16:39:53.729Z,101287.91
2022-12-01T16:42:21.823Z,101287.84
2022-12-01T16:44:50.266Z,101282.50
2022-12-01T16:47:25.274Z,101288.66
2022-12-01T16:49:53.078Z,101287.91
2022-12-01T16:52:43.782Z,101289.09
2022-12-01T16:55:42.463Z,101292.22
2022-12-01T16:58:09.475Z,101298.16
2022-12-01T17:00:36.131Z,101297.25
2022-12-01T17:03:04.360Z,101301.41
2022-12-01T17:05:31.363Z,101304.63
2022-12-01T17:07:58.091Z,101306.53
2022-12-01T17:10:25.716Z,101310.22
2022-12-01T17:12:52.429Z,101321.44
2022-12-01T17:15:19.139Z,101313.84
2022-12-01T17:17:45.874Z,101313.97
2022-12-01T17:20:13.327Z,101319.75
2022-12-01T17:22:40.102Z,101321.00
2022-12-01T17:25:09.562Z,101329.97
2022-12-01T17:27:37.580Z,101329.19
2022-12-01T17:30:05.727Z,101331.66
2022-12-01T17:32:32.687Z,101330.53
2022-12-01T17:34:59.368Z,101336.34
2022-12-01T17:37:27.969Z,101337.53
2022-12-01T17:39:54.759Z,101336.91
2022-12-01T17:42:21.946Z,101333.97
2022-12-01T17:44:48.849Z,101342.28
2022-12-01T17:47:15.821Z,101341.06
2022-12-01T17:49:42.478Z,101356.13
2022-12-01T17:52:09.271Z,101355.38
2022-12-01T17:54:35.911Z,101354.91
2022-12-01T17:57:02.782Z,101355.91
2022-12-01T17:59:29.378Z,101357.75
2022-12-01T18:01:56.162Z,101357.25
2022-12-01T18:04:22.836Z,101368.75
2022-12-01T18:06:54.070Z,101357.47
2022-12-01T18:09:21.759Z,101362.44
2022-12-01T18:11:48.966Z,101361.56
2022-12-01T18:14:17.855Z,101359.41
2022-12-01T18:16:45.143Z,101364.22
2022-12-01T18:19:12.336Z,101361.91
2022-12-01T18:21:39.440Z,101361.91
2022-12-01T18:24:08.898Z,101365.06
2022-12-01T18:26:37.691Z,101372.88
2022-12-01T18:29:07.286Z,101372.72
2022-12-01T18:31:35.096Z,101378.06
2022-12-01T18:34:03.402Z,101374.22
2022-12-01T18:36:32.046Z,101377.06
2022-12-01T18:39:00.363Z,101378.25
2022-12-01T18:41:27.867Z,101376.06
2022-12-01T18:43:54.547Z,101381.41
2022-12-01T18:46:22.208Z,101376.41
2022-12-01T18:48:51.107Z,101383.78
2022-12-01T18:51:18.552Z,101391.25
2022-12-01T18:53:45.512Z,101391.44
2022-12-01T18:56:15.043Z,101393.59
2022-12-01T18:58:42.181Z,101388.09
2022-12-01T19:01:27.294Z,101393.91
2022-12-01T19:03:55.979Z,101397.06
2022-12-01T19:06:23.760Z,101399.72
2022-12-01T19:08:51.317Z,101400.41
2022-12-01T19:11:18.505Z,101393.44
2022-12-01T19:13:45.354Z,101401.09
2022-12-01T19:16:14.751Z,101396.91
2022-12-01T19:18:42.438Z,101398.25
2022-12-01T19:21:11.734Z,101406.59
2022-12-01T19:23:38.461Z,101411.59
2022-12-01T19:26:06.526Z,101409.09
2022-12-01T19:28:34.322Z,101405.28
2022-12-01T19:31:08.984Z,101403.44
2022-12-01T19:33:35.815Z,101415.59
2022-12-01T19:36:12.301Z,101411.59
2022-12-01T19:38:40.115Z,101413.59
2022-12-01T19:41:08.382Z,101422.25
2022-12-01T19:43:36.146Z,101419.56
2022-12-01T19:46:14.049Z,101420.25
2022-12-01T19:48:40.916Z,101418.94
2022-12-01T19:51:15.149Z,101424.09
2022-12-01T19:53:41.794Z,101419.28
2022-12-01T19:56:09.301Z,101418.09
2022-12-01T19:58:35.984Z,101419.59
2022-12-01T20:01:08.953Z,101414.59
2022-12-01T20:03:36.170Z,101425.09
2022-12-01T20:06:06.645Z,101431.38
2022-12-01T20:08:35.958Z,101430.22
2022-12-01T20:11:04.524Z,101434.22
2022-12-01T20:13:35.627Z,101436.06
2022-12-01T20:16:07.227Z,101446.03
2022-12-01T20:18:34.062Z,101439.50
2022-12-01T20:21:17.614Z,101441.84
2022-12-01T20:23:50.192Z,101449.97
2022-12-01T20:26:19.270Z,101454.41
2022-12-01T20:28:50.512Z,101455.13
2022-12-01T20:31:24.076Z,101456.91
2022-12-01T20:33:52.388Z,101458.00
2022-12-01T20:36:20.050Z,101464.69
2022-12-01T20:38:47.021Z,101455.94
2022-12-01T20:41:14.133Z,101454.75
2022-12-01T20:43:40.854Z,101459.63
2022-12-01T20:46:07.796Z,101459.94
2022-12-01T20:48:35.070Z,101463.47
2022-12-01T20:51:03.380Z,101458.59
2022-12-01T20:53:30.355Z,101457.41
2022-12-01T20:55:57.166Z,101468.53
2022-12-01T20:58:23.893Z,101465.47
2022-12-01T21:00:52.299Z,101459.13
2022-12-01T21:03:19.051Z,101461.44
2022-12-01T21:05:45.788Z,101469.03
2022-12-01T21:08:13.452Z,101471.75
2022-12-01T21:10:44.770Z,101477.97
2022-12-01T21:13:37.718Z,101475.94
2022-12-01T21:16:13.677Z,101474.25
2022-12-01T21:19:00.394Z,101474.34
2022-12-01T21:21:29.131Z,101470.63
2022-12-01T21:24:07.689Z,101477.41
2022-12-01T21:26:38.869Z,101470.56
2022-12-01T21:29:24.761Z,101477.78
2022-12-01T21:31:54.202Z,101471.47
2022-12-01T21:34:25.751Z,101476.19
2022-12-01T21:36:56.825Z,101478.94
2022-12-01T21:39:24.654Z,101483.72
2022-12-01T21:41:56.925Z,101480.56
2022-12-01T21:44:36.198Z,101478.50
2022-12-01T21:47:17.351Z,101484.66
2022-12-01T21:49:47.061Z,101483.22
2022-12-01T21:52:22.692Z,101484.03
2022-12-01T21:54:49.887Z,101485.03
2022-12-01T21:57:42.757Z,101480.97
2022-12-01T22:00:28.235Z,101483.22
2022-12-01T22:03:19.825Z,101475.19
2022-12-01T22:06:13.480Z,101473.63
2022-12-01T22:08:40.031Z,101481.06
2022-12-01T22:11:25.492Z,101475.19
2022-12-01T22:14:01.006Z,101474.78
2022-12-01T22:16:36.243Z,101479.09
2022-12-01T22:19:23.025Z,101479.84
2022-12-01T22:21:54.713Z,101476.97
2022-12-01T22:24:27.399Z,101478.16
2022-12-01T22:27:04.099Z,101471.41
2022-12-01T22:29:40.613Z,101485.72
2022-12-01T22:32:13.392Z,101479.28
2022-12-01T22:34:53.281Z,101469.78
2022-12-01T22:37:23.012Z,101471.66
2022-12-01T22:39:53.944Z,101478.78
2022-12-01T22:42:34.885Z,101480.09
2022-12-01T22:45:29.453Z,101477.84
2022-12-01T22:48:01.841Z,101480.09
2022-12-01T22:50:31.934Z,101478.44
2022-12-01T22:53:14.969Z,101485.31
2022-12-01T22:55:41.927Z,101486.19
2022-12-01T22:58:25.157Z,101493.56
2022-12-01T23:00:53.951Z,101491.59
2022-12-01T23:03:20.692Z,101490.16
2022-12-01T23:05:55.412Z,101494.47
2022-12-01T23:08:23.644Z,101488.16
2022-12-01T23:10:51.102Z,101488.41
2022-12-01T23:13:23.793Z,101483.88
2022-12-01T23:15:53.693Z,101482.91
2022-12-01T23:18:27.045Z,101489.16
2022-12-01T23:20:56.058Z,101481.03
2022-12-01T23:23:34.515Z,101476.50
2022-12-01T23:26:07.831Z,101478.59
2022-12-01T23:28:37.030Z,101480.56
2022-12-01T23:31:03.737Z,101482.84
2022-12-01T23:33:32.661Z,101481.44
2022-12-01T23:36:28.445Z,101476.91
2022-12-01T23:39:02.462Z,101474.09
2022-12-01T23:41:36.915Z,101473.56
2022-12-01T23:44:09.398Z,101474.63
2022-12-01T23:46:36.819Z,101471.31
2022-12-01T23:49:07.269Z,101476.50
2022-12-01T23:51:45.497Z,101465.00
2022-12-01T23:54:33.693Z,101469.97
2022-12-01T23:57:24.033Z,101466.63
2022-12-01T23:59:54.846Z,101465.78
